sensor_id;sensor_type;location;lat;lon;timestamp;P1;durP1;ratioP1;P2;durP2;ratioP2
20857;SDS011;10589;53.636;10.012;2024-02-28T04:47:32;31.63;;;18.30;;
20857;SDS011;10589;53.636;10.012;2024-02-28T04:49:58;29.33;;;19.13;;
20857;SDS011;10589;53.636;10.012;2024-02-28T04:52:24;34.73;;;20.30;;
20857;SDS011;10589;53.636;10.012;2024-02-28T04:54:50;29.10;;;17.80;;
20857;SDS011;10589;53.636;10.012;2024-02-28T04:57:18;30.53;;;17.93;;
20857;SDS011;10589;53.636;10.012;2024-02-28T04:59:44;30.83;;;18.13;;
20857;SDS011;10589;53.636;10.012;2024-02-28T05:02:11;31.67;;;19.67;;
20857;SDS011;10589;53.636;10.012;2024-02-28T05:04:37;32.00;;;19.33;;
20857;SDS011;10589;53.636;10.012;2024-02-28T05:07:02;33.67;;;20.07;;
20857;SDS011;10589;53.636;10.012;2024-02-28T05:09:28;32.27;;;19.60;;
20857;SDS011;10589;53.636;10.012;2024-02-28T05:11:54;32.20;;;19.53;;
20857;SDS011;10589;53.636;10.012;2024-02-28T05:14:20;36.63;;;21.93;;
20857;SDS011;10589;53.636;10.012;2024-02-28T05:16:48;31.67;;;19.70;;
20857;SDS011;10589;53.636;10.012;2024-02-28T05:19:14;34.77;;;19.73;;
20857;SDS011;10589;53.636;10.012;2024-02-28T05:21:42;31.90;;;19.43;;
20857;SDS011;10589;53.636;10.012;2024-02-28T05:24:08;33.97;;;19.67;;
20857;SDS011;10589;53.636;10.012;2024-02-28T05:26:35;34.67;;;20.30;;
20857;SDS011;10589;53.636;10.012;2024-02-28T05:29:01;31.73;;;20.00;;
20857;SDS011;10589;53.636;10.012;2024-02-28T05:31:28;33.80;;;19.00;;
20857;SDS011;10589;53.636;10.012;2024-02-28T05:33:54;36.33;;;21.83;;
20857;SDS011;10589;53.636;10.012;2024-02-28T05:36:24;33.90;;;20.37;;
20857;SDS011;10589;53.636;10.012;2024-02-28T05:38:51;38.47;;;22.10;;
20857;SDS011;10589;53.636;10.012;2024-02-28T05:41:18;36.27;;;21.93;;
20857;SDS011;10589;53.636;10.012;2024-02-28T05:43:44;37.13;;;21.27;;
20857;SDS011;10589;53.636;10.012;2024-02-28T05:46:14;35.50;;;21.60;;
20857;SDS011;10589;53.636;10.012;2024-02-28T05:48:40;38.73;;;23.13;;
20857;SDS011;10589;53.636;10.012;2024-02-28T05:51:06;37.63;;;22.03;;
20857;SDS011;10589;53.636;10.012;2024-02-28T05:53:32;36.97;;;21.80;;
20857;SDS011;10589;53.636;10.012;2024-02-28T05:56:04;39.33;;;23.13;;
20857;SDS011;10589;53.636;10.012;2024-02-28T05:58:30;39.47;;;22.30;;
20857;SDS011;10589;53.636;10.012;2024-02-28T06:00:56;37.47;;;23.00;;
20857;SDS011;10589;53.636;10.012;2024-02-28T06:03:22;40.13;;;23.37;;
20857;SDS011;10589;53.636;10.012;2024-02-28T06:05:48;36.13;;;22.27;;
20857;SDS011;10589;53.636;10.012;2024-02-28T06:08:14;42.00;;;24.17;;
20857;SDS011;10589;53.636;10.012;2024-02-28T06:10:40;39.87;;;23.23;;
20857;SDS011;10589;53.636;10.012;2024-02-28T06:13:07;37.80;;;22.80;;
20857;SDS011;10589;53.636;10.012;2024-02-28T06:15:33;39.10;;;22.40;;
20857;SDS011;10589;53.636;10.012;2024-02-28T06:17:59;41.47;;;24.23;;
20857;SDS011;10589;53.636;10.012;2024-02-28T06:20:27;38.47;;;22.73;;
20857;SDS011;10589;53.636;10.012;2024-02-28T06:22:53;38.40;;;22.33;;
20857;SDS011;10589;53.636;10.012;2024-02-28T06:25:18;42.10;;;23.63;;
20857;SDS011;10589;53.636;10.012;2024-02-28T06:27:47;39.63;;;23.20;;
20857;SDS011;10589;53.636;10.012;2024-02-28T06:30:13;40.67;;;23.80;;
20857;SDS011;10589;53.636;10.012;2024-02-28T06:32:38;33.40;;;21.03;;
20857;SDS011;10589;53.636;10.012;2024-02-28T06:35:04;44.20;;;24.23;;
20857;SDS011;10589;53.636;10.012;2024-02-28T06:37:30;38.60;;;23.80;;
20857;SDS011;10589;53.636;10.012;2024-02-28T06:39:56;37.27;;;23.63;;
20857;SDS011;10589;53.636;10.012;2024-02-28T06:42:22;36.67;;;22.67;;
20857;SDS011;10589;53.636;10.012;2024-02-28T06:44:47;33.03;;;21.17;;
20857;SDS011;10589;53.636;10.012;2024-02-28T06:47:13;39.93;;;23.07;;
20857;SDS011;10589;53.636;10.012;2024-02-28T06:49:38;31.30;;;20.00;;
20857;SDS011;10589;53.636;10.012;2024-02-28T06:52:04;34.37;;;21.67;;
20857;SDS011;10589;53.636;10.012;2024-02-28T06:54:30;43.87;;;20.37;;
20857;SDS011;10589;53.636;10.012;2024-02-28T06:56:56;34.50;;;21.57;;
20857;SDS011;10589;53.636;10.012;2024-02-28T06:59:22;33.83;;;20.57;;
20857;SDS011;10589;53.636;10.012;2024-02-28T07:01:48;30.00;;;18.70;;
20857;SDS011;10589;53.636;10.012;2024-02-28T07:04:14;30.77;;;19.43;;
20857;SDS011;10589;53.636;10.012;2024-02-28T07:06:40;30.20;;;19.33;;
20857;SDS011;10589;53.636;10.012;2024-02-28T07:09:08;29.60;;;19.87;;
20857;SDS011;10589;53.636;10.012;2024-02-28T07:11:34;29.03;;;18.80;;
20857;SDS011;10589;53.636;10.012;2024-02-28T07:14:00;33.03;;;19.73;;
20857;SDS011;10589;53.636;10.012;2024-02-28T07:16:29;30.80;;;17.93;;
20857;SDS011;10589;53.636;10.012;2024-02-28T07:18:55;26.87;;;18.00;;
20857;SDS011;10589;53.636;10.012;2024-02-28T07:21:20;29.07;;;18.97;;
20857;SDS011;10589;53.636;10.012;2024-02-28T07:23:46;27.93;;;18.07;;
20857;SDS011;10589;53.636;10.012;2024-02-28T07:26:15;26.20;;;17.23;;
20857;SDS011;10589;53.636;10.012;2024-02-28T07:28:41;28.60;;;16.93;;
20857;SDS011;10589;53.636;10.012;2024-02-28T07:31:07;28.60;;;16.13;;
20857;SDS011;10589;53.636;10.012;2024-02-28T07:33:39;27.03;;;16.80;;
20857;SDS011;10589;53.636;10.012;2024-02-28T07:36:06;27.17;;;16.77;;
20857;SDS011;10589;53.636;10.012;2024-02-28T07:38:32;25.97;;;17.00;;
20857;SDS011;10589;53.636;10.012;2024-02-28T07:40:57;24.07;;;16.53;;
20857;SDS011;10589;53.636;10.012;2024-02-28T07:43:23;24.90;;;16.20;;
20857;SDS011;10589;53.636;10.012;2024-02-28T07:45:49;26.60;;;17.47;;
20857;SDS011;10589;53.636;10.012;2024-02-28T07:48:15;26.60;;;17.20;;
20857;SDS011;10589;53.636;10.012;2024-02-28T07:50:43;29.63;;;16.90;;
20857;SDS011;10589;53.636;10.012;2024-02-28T07:53:14;23.33;;;15.50;;
20857;SDS011;10589;53.636;10.012;2024-02-28T07:55:40;26.50;;;16.03;;
20857;SDS011;10589;53.636;10.012;2024-02-28T07:58:06;25.83;;;16.17;;
20857;SDS011;10589;53.636;10.012;2024-02-28T08:00:32;27.90;;;16.43;;
20857;SDS011;10589;53.636;10.012;2024-02-28T08:03:00;25.20;;;16.27;;
20857;SDS011;10589;53.636;10.012;2024-02-28T08:05:26;27.60;;;16.70;;
20857;SDS011;10589;53.636;10.012;2024-02-28T08:07:52;26.17;;;17.93;;
20857;SDS011;10589;53.636;10.012;2024-02-28T08:10:17;27.73;;;18.07;;
20857;SDS011;10589;53.636;10.012;2024-02-28T08:12:43;26.77;;;17.63;;
20857;SDS011;10589;53.636;10.012;2024-02-28T08:15:09;29.07;;;18.90;;
20857;SDS011;10589;53.636;10.012;2024-02-28T08:17:35;28.97;;;19.20;;
20857;SDS011;10589;53.636;10.012;2024-02-28T08:20:02;28.33;;;18.33;;
20857;SDS011;10589;53.636;10.012;2024-02-28T08:22:30;28.70;;;18.50;;
20857;SDS011;10589;53.636;10.012;2024-02-28T08:24:55;28.37;;;19.57;;
20857;SDS011;10589;53.636;10.012;2024-02-28T08:27:21;28.80;;;19.33;;
20857;SDS011;10589;53.636;10.012;2024-02-28T08:29:48;29.90;;;19.83;;
20857;SDS011;10589;53.636;10.012;2024-02-28T08:32:17;31.83;;;20.93;;
20857;SDS011;10589;53.636;10.012;2024-02-28T08:34:46;32.53;;;21.47;;
20857;SDS011;10589;53.636;10.012;2024-02-28T08:37:12;36.03;;;21.83;;
20857;SDS011;10589;53.636;10.012;2024-02-28T08:39:38;41.43;;;22.90;;
20857;SDS011;10589;53.636;10.012;2024-02-28T08:42:04;32.97;;;19.93;;
20857;SDS011;10589;53.636;10.012;2024-02-28T08:44:30;36.00;;;22.83;;
20857;SDS011;10589;53.636;10.012;2024-02-28T08:46:56;36.60;;;23.47;;
20857;SDS011;10589;53.636;10.012;2024-02-28T08:49:21;41.10;;;24.27;;
20857;SDS011;10589;53.636;10.012;2024-02-28T08:51:47;38.53;;;23.97;;
20857;SDS011;10589;53.636;10.012;2024-02-28T08:54:13;39.03;;;24.20;;
20857;SDS011;10589;53.636;10.012;2024-02-28T08:56:39;40.17;;;25.23;;
20857;SDS011;10589;53.636;10.012;2024-02-28T08:59:04;41.03;;;25.47;;
20857;SDS011;10589;53.636;10.012;2024-02-28T09:01:30;40.87;;;25.47;;
20857;SDS011;10589;53.636;10.012;2024-02-28T09:03:55;39.77;;;25.93;;
20857;SDS011;10589;53.636;10.012;2024-02-28T09:06:21;38.43;;;24.83;;
20857;SDS011;10589;53.636;10.012;2024-02-28T09:08:46;37.63;;;23.90;;
20857;SDS011;10589;53.636;10.012;2024-02-28T09:11:12;39.87;;;25.27;;
20857;SDS011;10589;53.636;10.012;2024-02-28T09:13:38;36.83;;;24.53;;
20857;SDS011;10589;53.636;10.012;2024-02-28T09:16:03;38.27;;;25.17;;
20857;SDS011;10589;53.636;10.012;2024-02-28T09:18:29;36.57;;;23.30;;
20857;SDS011;10589;53.636;10.012;2024-02-28T09:20:54;35.57;;;24.13;;
20857;SDS011;10589;53.636;10.012;2024-02-28T09:23:20;36.20;;;23.13;;
20857;SDS011;10589;53.636;10.012;2024-02-28T09:25:46;32.60;;;22.50;;
20857;SDS011;10589;53.636;10.012;2024-02-28T09:28:11;33.20;;;22.03;;
20857;SDS011;10589;53.636;10.012;2024-02-28T09:30:39;36.40;;;22.57;;
20857;SDS011;10589;53.636;10.012;2024-02-28T09:33:05;31.87;;;21.30;;
20857;SDS011;10589;53.636;10.012;2024-02-28T09:35:31;34.93;;;21.67;;
20857;SDS011;10589;53.636;10.012;2024-02-28T09:37:57;34.10;;;22.53;;
20857;SDS011;10589;53.636;10.012;2024-02-28T09:40:22;32.43;;;21.23;;
20857;SDS011;10589;53.636;10.012;2024-02-28T09:42:52;30.10;;;20.67;;
20857;SDS011;10589;53.636;10.012;2024-02-28T09:45:19;29.03;;;19.23;;
20857;SDS011;10589;53.636;10.012;2024-02-28T09:47:46;29.00;;;19.90;;
20857;SDS011;10589;53.636;10.012;2024-02-28T09:50:12;29.57;;;19.70;;
20857;SDS011;10589;53.636;10.012;2024-02-28T09:52:38;29.37;;;19.67;;
20857;SDS011;10589;53.636;10.012;2024-02-28T09:55:04;29.87;;;20.03;;
20857;SDS011;10589;53.636;10.012;2024-02-28T09:57:30;30.77;;;18.83;;
20857;SDS011;10589;53.636;10.012;2024-02-28T09:59:57;29.07;;;19.37;;
20857;SDS011;10589;53.636;10.012;2024-02-28T10:02:25;25.60;;;18.43;;
20857;SDS011;10589;53.636;10.012;2024-02-28T10:04:53;27.20;;;18.00;;
20857;SDS011;10589;53.636;10.012;2024-02-28T10:07:20;24.70;;;17.77;;
20857;SDS011;10589;53.636;10.012;2024-02-28T10:09:46;27.00;;;18.27;;
20857;SDS011;10589;53.636;10.012;2024-02-28T10:12:12;25.20;;;18.10;;
20857;SDS011;10589;53.636;10.012;2024-02-28T10:14:39;24.87;;;18.63;;
20857;SDS011;10589;53.636;10.012;2024-02-28T10:17:04;25.20;;;17.50;;
20857;SDS011;10589;53.636;10.012;2024-02-28T10:19:30;27.77;;;17.93;;
20857;SDS011;10589;53.636;10.012;2024-02-28T10:21:56;27.90;;;19.53;;
20857;SDS011;10589;53.636;10.012;2024-02-28T10:24:23;28.80;;;19.17;;
20857;SDS011;10589;53.636;10.012;2024-02-28T10:26:49;24.17;;;17.60;;
20857;SDS011;10589;53.636;10.012;2024-02-28T10:29:24;25.73;;;18.87;;
20857;SDS011;10589;53.636;10.012;2024-02-28T10:31:50;30.67;;;18.93;;
20857;SDS011;10589;53.636;10.012;2024-02-28T10:34:17;30.80;;;18.23;;
20857;SDS011;10589;53.636;10.012;2024-02-28T10:36:45;29.10;;;18.10;;
20857;SDS011;10589;53.636;10.012;2024-02-28T10:39:11;24.90;;;18.00;;
20857;SDS011;10589;53.636;10.012;2024-02-28T10:41:37;25.37;;;16.93;;
20857;SDS011;10589;53.636;10.012;2024-02-28T10:44:03;24.57;;;16.33;;
20857;SDS011;10589;53.636;10.012;2024-02-28T10:46:29;24.47;;;16.10;;
20857;SDS011;10589;53.636;10.012;2024-02-28T10:48:56;24.23;;;16.23;;
20857;SDS011;10589;53.636;10.012;2024-02-28T10:51:25;24.23;;;16.73;;
20857;SDS011;10589;53.636;10.012;2024-02-28T10:53:59;27.63;;;16.43;;
20857;SDS011;10589;53.636;10.012;2024-02-28T10:56:27;23.73;;;16.20;;
20857;SDS011;10589;53.636;10.012;2024-02-28T10:58:57;22.33;;;15.47;;
20857;SDS011;10589;53.636;10.012;2024-02-28T11:01:24;24.80;;;16.70;;
20857;SDS011;10589;53.636;10.012;2024-02-28T11:03:51;24.03;;;16.17;;
20857;SDS011;10589;53.636;10.012;2024-02-28T11:06:20;27.40;;;18.13;;
20857;SDS011;10589;53.636;10.012;2024-02-28T11:08:47;24.77;;;17.60;;
20857;SDS011;10589;53.636;10.012;2024-02-28T11:11:17;23.57;;;17.33;;
20857;SDS011;10589;53.636;10.012;2024-02-28T11:13:51;23.77;;;16.50;;
20857;SDS011;10589;53.636;10.012;2024-02-28T11:16:30;22.33;;;15.17;;
20857;SDS011;10589;53.636;10.012;2024-02-28T11:18:59;20.57;;;15.03;;
20857;SDS011;10589;53.636;10.012;2024-02-28T11:21:26;21.43;;;15.60;;
20857;SDS011;10589;53.636;10.012;2024-02-28T11:23:56;22.07;;;15.63;;
20857;SDS011;10589;53.636;10.012;2024-02-28T11:26:23;27.40;;;17.43;;
20857;SDS011;10589;53.636;10.012;2024-02-28T11:28:50;22.90;;;15.60;;
20857;SDS011;10589;53.636;10.012;2024-02-28T11:31:16;22.67;;;15.43;;
20857;SDS011;10589;53.636;10.012;2024-02-28T11:33:43;24.10;;;15.57;;
20857;SDS011;10589;53.636;10.012;2024-02-28T11:36:10;21.33;;;14.53;;
20857;SDS011;10589;53.636;10.012;2024-02-28T11:38:38;22.87;;;14.80;;
20857;SDS011;10589;53.636;10.012;2024-02-28T11:41:04;22.37;;;15.87;;
20857;SDS011;10589;53.636;10.012;2024-02-28T11:43:32;22.17;;;15.37;;
20857;SDS011;10589;53.636;10.012;2024-02-28T11:45:59;22.57;;;15.57;;
20857;SDS011;10589;53.636;10.012;2024-02-28T11:48:25;21.20;;;15.37;;
20857;SDS011;10589;53.636;10.012;2024-02-28T11:50:52;20.93;;;14.27;;
20857;SDS011;10589;53.636;10.012;2024-02-28T11:53:19;22.17;;;15.13;;
20857;SDS011;10589;53.636;10.012;2024-02-28T11:55:47;23.73;;;15.43;;
20857;SDS011;10589;53.636;10.012;2024-02-28T11:58:13;24.77;;;16.33;;
20857;SDS011;10589;53.636;10.012;2024-02-28T12:00:49;22.67;;;15.10;;
20857;SDS011;10589;53.636;10.012;2024-02-28T12:03:24;25.47;;;16.10;;
20857;SDS011;10589;53.636;10.012;2024-02-28T12:05:54;22.87;;;15.00;;
20857;SDS011;10589;53.636;10.012;2024-02-28T12:08:21;23.77;;;16.10;;
20857;SDS011;10589;53.636;10.012;2024-02-28T12:10:47;24.07;;;15.37;;
20857;SDS011;10589;53.636;10.012;2024-02-28T12:13:19;23.47;;;14.77;;
20857;SDS011;10589;53.636;10.012;2024-02-28T12:15:45;24.80;;;16.20;;
20857;SDS011;10589;53.636;10.012;2024-02-28T12:18:14;21.33;;;14.73;;
20857;SDS011;10589;53.636;10.012;2024-02-28T12:20:40;22.20;;;14.77;;
20857;SDS011;10589;53.636;10.012;2024-02-28T12:23:06;23.20;;;15.53;;
20857;SDS011;10589;53.636;10.012;2024-02-28T12:25:33;21.60;;;14.97;;
20857;SDS011;10589;53.636;10.012;2024-02-28T12:27:59;20.57;;;14.40;;
20857;SDS011;10589;53.636;10.012;2024-02-28T12:30:26;23.23;;;15.63;;
20857;SDS011;10589;53.636;10.012;2024-02-28T12:32:52;24.73;;;15.97;;
20857;SDS011;10589;53.636;10.012;2024-02-28T12:35:17;23.43;;;15.73;;
20857;SDS011;10589;53.636;10.012;2024-02-28T12:37:43;25.87;;;15.90;;
20857;SDS011;10589;53.636;10.012;2024-02-28T12:40:08;24.43;;;16.80;;
20857;SDS011;10589;53.636;10.012;2024-02-28T12:42:34;23.13;;;15.50;;
20857;SDS011;10589;53.636;10.012;2024-02-28T12:45:01;25.10;;;15.90;;
20857;SDS011;10589;53.636;10.012;2024-02-28T12:47:28;23.97;;;15.70;;
20857;SDS011;10589;53.636;10.012;2024-02-28T12:49:55;22.93;;;15.67;;
20857;SDS011;10589;53.636;10.012;2024-02-28T12:52:21;24.70;;;16.03;;
20857;SDS011;10589;53.636;10.012;2024-02-28T12:54:46;25.20;;;15.97;;
20857;SDS011;10589;53.636;10.012;2024-02-28T12:57:12;23.40;;;15.33;;
20857;SDS011;10589;53.636;10.012;2024-02-28T12:59:41;26.17;;;15.67;;
20857;SDS011;10589;53.636;10.012;2024-02-28T13:02:07;26.20;;;16.20;;
20857;SDS011;10589;53.636;10.012;2024-02-28T13:04:34;25.97;;;15.47;;
20857;SDS011;10589;53.636;10.012;2024-02-28T13:07:01;21.93;;;14.27;;
20857;SDS011;10589;53.636;10.012;2024-02-28T13:09:27;20.30;;;13.87;;
20857;SDS011;10589;53.636;10.012;2024-02-28T13:11:53;22.17;;;15.30;;
20857;SDS011;10589;53.636;10.012;2024-02-28T13:14:18;21.90;;;14.17;;
20857;SDS011;10589;53.636;10.012;2024-02-28T13:16:44;23.50;;;15.03;;
20857;SDS011;10589;53.636;10.012;2024-02-28T13:19:09;22.10;;;14.50;;
20857;SDS011;10589;53.636;10.012;2024-02-28T13:21:35;23.70;;;13.93;;
20857;SDS011;10589;53.636;10.012;2024-02-28T13:24:02;22.83;;;14.50;;
20857;SDS011;10589;53.636;10.012;2024-02-28T13:26:29;22.60;;;13.70;;
20857;SDS011;10589;53.636;10.012;2024-02-28T13:28:54;18.33;;;13.03;;
20857;SDS011;10589;53.636;10.012;2024-02-28T13:31:20;20.83;;;13.93;;
20857;SDS011;10589;53.636;10.012;2024-02-28T13:33:46;21.03;;;13.40;;
20857;SDS011;10589;53.636;10.012;2024-02-28T13:36:13;23.40;;;14.30;;
20857;SDS011;10589;53.636;10.012;2024-02-28T13:38:39;22.67;;;14.57;;
20857;SDS011;10589;53.636;10.012;2024-02-28T13:41:04;21.87;;;14.43;;
20857;SDS011;10589;53.636;10.012;2024-02-28T13:43:30;22.40;;;14.20;;
20857;SDS011;10589;53.636;10.012;2024-02-28T13:45:56;21.10;;;13.30;;
20857;SDS011;10589;53.636;10.012;2024-02-28T13:48:25;21.87;;;14.30;;
20857;SDS011;10589;53.636;10.012;2024-02-28T13:50:55;22.63;;;14.10;;
20857;SDS011;10589;53.636;10.012;2024-02-28T13:53:21;25.77;;;14.53;;
20857;SDS011;10589;53.636;10.012;2024-02-28T13:55:47;24.07;;;14.50;;
20857;SDS011;10589;53.636;10.012;2024-02-28T13:58:13;21.97;;;13.83;;
20857;SDS011;10589;53.636;10.012;2024-02-28T14:00:43;24.57;;;14.63;;
20857;SDS011;10589;53.636;10.012;2024-02-28T14:03:10;21.00;;;13.97;;
20857;SDS011;10589;53.636;10.012;2024-02-28T14:05:36;25.03;;;15.80;;
20857;SDS011;10589;53.636;10.012;2024-02-28T14:08:02;24.57;;;13.47;;
20857;SDS011;10589;53.636;10.012;2024-02-28T14:10:35;27.70;;;15.30;;
20857;SDS011;10589;53.636;10.012;2024-02-28T14:13:02;28.37;;;16.20;;
20857;SDS011;10589;53.636;10.012;2024-02-28T14:15:28;25.03;;;14.63;;
20857;SDS011;10589;53.636;10.012;2024-02-28T14:17:55;22.30;;;14.30;;
20857;SDS011;10589;53.636;10.012;2024-02-28T14:20:20;22.77;;;13.27;;
20857;SDS011;10589;53.636;10.012;2024-02-28T14:22:46;25.43;;;13.40;;
20857;SDS011;10589;53.636;10.012;2024-02-28T14:25:12;19.47;;;12.20;;
20857;SDS011;10589;53.636;10.012;2024-02-28T14:27:40;20.40;;;12.20;;
20857;SDS011;10589;53.636;10.012;2024-02-28T14:30:07;24.33;;;12.70;;
20857;SDS011;10589;53.636;10.012;2024-02-28T14:32:34;19.87;;;13.50;;
20857;SDS011;10589;53.636;10.012;2024-02-28T14:35:01;21.20;;;13.77;;
20857;SDS011;10589;53.636;10.012;2024-02-28T14:37:28;18.00;;;12.67;;
20857;SDS011;10589;53.636;10.012;2024-02-28T14:39:54;20.33;;;12.77;;
20857;SDS011;10589;53.636;10.012;2024-02-28T14:42:20;20.37;;;13.03;;
20857;SDS011;10589;53.636;10.012;2024-02-28T14:44:45;22.40;;;12.43;;
20857;SDS011;10589;53.636;10.012;2024-02-28T14:47:11;21.53;;;12.97;;
20857;SDS011;10589;53.636;10.012;2024-02-28T14:49:36;19.40;;;12.63;;
20857;SDS011;10589;53.636;10.012;2024-02-28T14:52:03;21.80;;;11.53;;
20857;SDS011;10589;53.636;10.012;2024-02-28T14:54:28;19.27;;;12.23;;
20857;SDS011;10589;53.636;10.012;2024-02-28T14:56:54;21.00;;;12.20;;
20857;SDS011;10589;53.636;10.012;2024-02-28T14:59:20;19.23;;;11.00;;
20857;SDS011;10589;53.636;10.012;2024-02-28T15:01:47;19.47;;;12.40;;
20857;SDS011;10589;53.636;10.012;2024-02-28T15:04:13;15.67;;;11.67;;
20857;SDS011;10589;53.636;10.012;2024-02-28T15:06:40;18.67;;;11.87;;
20857;SDS011;10589;53.636;10.012;2024-02-28T15:09:06;20.10;;;11.93;;
20857;SDS011;10589;53.636;10.012;2024-02-28T15:11:33;20.37;;;11.60;;
20857;SDS011;10589;53.636;10.012;2024-02-28T15:13:59;14.70;;;10.10;;
20857;SDS011;10589;53.636;10.012;2024-02-28T15:16:24;16.47;;;10.00;;
20857;SDS011;10589;53.636;10.012;2024-02-28T15:18:50;17.20;;;11.00;;
20857;SDS011;10589;53.636;10.012;2024-02-28T15:21:15;16.03;;;10.70;;
20857;SDS011;10589;53.636;10.012;2024-02-28T15:23:41;19.30;;;11.47;;
20857;SDS011;10589;53.636;10.012;2024-02-28T15:26:07;19.23;;;12.13;;
20857;SDS011;10589;53.636;10.012;2024-02-28T15:28:32;17.57;;;11.37;;
20857;SDS011;10589;53.636;10.012;2024-02-28T15:30:59;15.60;;;11.13;;
20857;SDS011;10589;53.636;10.012;2024-02-28T15:33:25;20.83;;;11.57;;
20857;SDS011;10589;53.636;10.012;2024-02-28T15:35:50;19.70;;;11.57;;
20857;SDS011;10589;53.636;10.012;2024-02-28T15:38:16;18.63;;;12.10;;
20857;SDS011;10589;53.636;10.012;2024-02-28T15:40:42;18.87;;;12.00;;
20857;SDS011;10589;53.636;10.012;2024-02-28T15:43:08;18.27;;;11.93;;
20857;SDS011;10589;53.636;10.012;2024-02-28T15:45:34;21.13;;;12.63;;
20857;SDS011;10589;53.636;10.012;2024-02-28T15:47:59;19.03;;;12.53;;
20857;SDS011;10589;53.636;10.012;2024-02-28T15:50:26;17.87;;;11.87;;
20857;SDS011;10589;53.636;10.012;2024-02-28T15:52:52;18.07;;;11.90;;
20857;SDS011;10589;53.636;10.012;2024-02-28T15:55:18;22.70;;;11.90;;
20857;SDS011;10589;53.636;10.012;2024-02-28T15:57:46;17.37;;;12.13;;
20857;SDS011;10589;53.636;10.012;2024-02-28T16:00:12;17.17;;;12.60;;
20857;SDS011;10589;53.636;10.012;2024-02-28T16:02:38;21.20;;;13.53;;
20857;SDS011;10589;53.636;10.012;2024-02-28T16:05:04;19.13;;;12.70;;
20857;SDS011;10589;53.636;10.012;2024-02-28T16:07:29;19.90;;;13.03;;
20857;SDS011;10589;53.636;10.012;2024-02-28T16:09:55;21.10;;;14.13;;
20857;SDS011;10589;53.636;10.012;2024-02-28T16:12:21;18.17;;;13.13;;
20857;SDS011;10589;53.636;10.012;2024-02-28T16:14:48;18.67;;;12.43;;
20857;SDS011;10589;53.636;10.012;2024-02-28T16:17:14;21.33;;;12.70;;
20857;SDS011;10589;53.636;10.012;2024-02-28T16:19:42;21.37;;;13.33;;
20857;SDS011;10589;53.636;10.012;2024-02-28T16:22:09;19.47;;;12.17;;
20857;SDS011;10589;53.636;10.012;2024-02-28T16:24:35;23.33;;;14.03;;
20857;SDS011;10589;53.636;10.012;2024-02-28T16:27:01;22.73;;;13.50;;
20857;SDS011;10589;53.636;10.012;2024-02-28T16:29:28;24.37;;;13.67;;
20857;SDS011;10589;53.636;10.012;2024-02-28T16:31:54;25.53;;;14.33;;
20857;SDS011;10589;53.636;10.012;2024-02-28T16:34:19;23.37;;;13.00;;
20857;SDS011;10589;53.636;10.012;2024-02-28T16:36:45;21.47;;;13.43;;
20857;SDS011;10589;53.636;10.012;2024-02-28T16:39:11;25.10;;;14.37;;
20857;SDS011;10589;53.636;10.012;2024-02-28T16:41:38;22.00;;;13.63;;
20857;SDS011;10589;53.636;10.012;2024-02-28T16:44:04;28.50;;;15.33;;
20857;SDS011;10589;53.636;10.012;2024-02-28T16:46:30;28.47;;;15.17;;
20857;SDS011;10589;53.636;10.012;2024-02-28T16:48:56;27.67;;;15.27;;
20857;SDS011;10589;53.636;10.012;2024-02-28T16:51:22;25.80;;;14.80;;
20857;SDS011;10589;53.636;10.012;2024-02-28T16:53:47;29.90;;;16.43;;
20857;SDS011;10589;53.636;10.012;2024-02-28T16:56:13;29.67;;;16.53;;
20857;SDS011;10589;53.636;10.012;2024-02-28T16:58:38;32.00;;;17.43;;
20857;SDS011;10589;53.636;10.012;2024-02-28T17:01:07;31.67;;;17.37;;
20857;SDS011;10589;53.636;10.012;2024-02-28T17:03:34;32.87;;;16.93;;
20857;SDS011;10589;53.636;10.012;2024-02-28T17:05:59;34.97;;;18.07;;
20857;SDS011;10589;53.636;10.012;2024-02-28T17:08:25;33.27;;;17.93;;
20857;SDS011;10589;53.636;10.012;2024-02-28T17:10:51;29.33;;;17.03;;
20857;SDS011;10589;53.636;10.012;2024-02-28T17:13:17;29.23;;;17.77;;
20857;SDS011;10589;53.636;10.012;2024-02-28T17:15:43;33.90;;;17.30;;
20857;SDS011;10589;53.636;10.012;2024-02-28T17:18:09;34.50;;;18.43;;
20857;SDS011;10589;53.636;10.012;2024-02-28T17:20:34;34.03;;;18.00;;
20857;SDS011;10589;53.636;10.012;2024-02-28T17:23:00;31.83;;;18.13;;
20857;SDS011;10589;53.636;10.012;2024-02-28T17:25:25;31.17;;;17.00;;
20857;SDS011;10589;53.636;10.012;2024-02-28T17:27:51;34.23;;;17.70;;
20857;SDS011;10589;53.636;10.012;2024-02-28T17:30:16;32.80;;;17.73;;
20857;SDS011;10589;53.636;10.012;2024-02-28T17:32:42;38.97;;;18.90;;
20857;SDS011;10589;53.636;10.012;2024-02-28T17:35:08;39.57;;;18.77;;
20857;SDS011;10589;53.636;10.012;2024-02-28T17:37:34;35.93;;;18.93;;
20857;SDS011;10589;53.636;10.012;2024-02-28T17:40:00;35.53;;;18.37;;
20857;SDS011;10589;53.636;10.012;2024-02-28T17:42:26;36.43;;;18.63;;
20857;SDS011;10589;53.636;10.012;2024-02-28T17:44:53;37.60;;;18.30;;
20857;SDS011;10589;53.636;10.012;2024-02-28T17:47:19;37.27;;;19.23;;
20857;SDS011;10589;53.636;10.012;2024-02-28T17:49:47;35.73;;;18.13;;
20857;SDS011;10589;53.636;10.012;2024-02-28T17:52:12;36.30;;;18.90;;
20857;SDS011;10589;53.636;10.012;2024-02-28T17:54:38;35.57;;;18.73;;
20857;SDS011;10589;53.636;10.012;2024-02-28T17:57:03;38.67;;;20.07;;
20857;SDS011;10589;53.636;10.012;2024-02-28T17:59:29;37.43;;;19.03;;
20857;SDS011;10589;53.636;10.012;2024-02-28T18:01:57;34.30;;;19.60;;
20857;SDS011;10589;53.636;10.012;2024-02-28T18:04:23;34.43;;;19.03;;
20857;SDS011;10589;53.636;10.012;2024-02-28T18:06:49;33.70;;;18.90;;
20857;SDS011;10589;53.636;10.012;2024-02-28T18:09:15;31.67;;;18.40;;
20857;SDS011;10589;53.636;10.012;2024-02-28T18:11:43;33.33;;;18.27;;
20857;SDS011;10589;53.636;10.012;2024-02-28T18:14:09;37.00;;;19.33;;
20857;SDS011;10589;53.636;10.012;2024-02-28T18:16:36;37.20;;;19.60;;
20857;SDS011;10589;53.636;10.012;2024-02-28T18:19:03;33.80;;;19.33;;
20857;SDS011;10589;53.636;10.012;2024-02-28T18:21:29;34.60;;;18.93;;
20857;SDS011;10589;53.636;10.012;2024-02-28T18:23:57;34.17;;;19.77;;
20857;SDS011;10589;53.636;10.012;2024-02-28T18:26:23;32.80;;;18.70;;
20857;SDS011;10589;53.636;10.012;2024-02-28T18:28:48;33.43;;;18.20;;
20857;SDS011;10589;53.636;10.012;2024-02-28T18:31:14;35.77;;;19.43;;
20857;SDS011;10589;53.636;10.012;2024-02-28T18:33:40;38.63;;;20.27;;
20857;SDS011;10589;53.636;10.012;2024-02-28T18:36:06;35.50;;;19.83;;
20857;SDS011;10589;53.636;10.012;2024-02-28T18:38:32;34.67;;;19.20;;
20857;SDS011;10589;53.636;10.012;2024-02-28T18:40:58;38.53;;;20.30;;
20857;SDS011;10589;53.636;10.012;2024-02-28T18:43:23;34.50;;;19.17;;
20857;SDS011;10589;53.636;10.012;2024-02-28T18:45:49;35.47;;;19.17;;
20857;SDS011;10589;53.636;10.012;2024-02-28T18:48:15;34.10;;;18.90;;
20857;SDS011;10589;53.636;10.012;2024-02-28T18:50:41;35.67;;;19.33;;